Latest Weather Observations for Point Stuart

IDD60901

Issued at 11:51 am CST Monday 31 August 2015 (issued every 10 minutes, with the page automatically refreshed every 10 minutes)

About weather observations | Map of Darwin area stations | Latest observations for Darwin area | Other Formats
Station Details ID: 014254 Name: POINT STUART Lat: -12.24 Lon: 131.88 Height: 1.0 m
Data from the previous 72 hours. | See also: Recent months at Point Stuart
Date/Time
CST
Tmp

°C
App
Tmp
°C
Dew
Point
°C
Rel
Hum
%
Delta-T

°C
Wind Press
QNH
hPa
Press
MSL
hPa
Rain
since
9 am
mm
Dir
 
Spd
km/h
Gust
km/h
Spd
kts
Gust
kts
31/11:30am 30.5 32.2 21.0 57 6.3 NE 13 20 7 11 1015.4 - 0.0
31/11:00am 29.2 31.1 21.4 63 5.2 E 13 19 7 10 1015.9 - 0.0
31/10:30am 29.0 30.8 21.2 62 5.2 NE 13 20 7 11 1016.1 - 0.0
31/10:00am 29.2 31.1 21.4 63 5.2 NE 13 20 7 11 1015.9 - 0.0
31/09:30am 28.0 29.8 21.1 66 4.6 NNE 13 20 7 11 1015.8 - 0.0
31/09:00am 28.0 29.4 21.1 66 4.6 NNE 15 22 8 12 1015.5 1015.5 0.0
31/08:30am 26.9 28.8 21.4 72 3.7 N 13 17 7 9 1015.5 - 0.0
31/08:00am 26.3 29.0 22.2 78 2.8 N 11 17 6 9 1015.1 - 0.0
31/07:30am 24.7 28.8 23.3 92 0.9 NNE 7 13 4 7 1014.9 - 0.0
31/07:00am 22.0 24.7 21.3 96 0.5 NNE 9 11 5 6 1014.7 - 0.0
31/06:30am 21.3 23.8 20.3 94 0.6 NNE 7 9 4 5 1014.5 - 0.0
31/06:00am 21.7 24.4 20.3 92 0.9 NNE 6 7 3 4 1014.1 1014.1 0.0
31/05:30am 21.9 24.5 20.0 89 1.2 NNE 6 7 3 4 1013.9 - 0.0
31/05:00am 23.3 26.3 21.2 88 1.4 NNE 7 9 4 5 1013.9 - 0.0
31/04:30am 22.2 25.2 21.2 94 0.7 NNE 7 11 4 6 1014.0 - 0.0
31/04:00am 21.7 24.5 20.5 93 0.8 NNE 6 7 3 4 1014.2 - 0.0
31/03:30am 21.9 24.7 20.4 91 1.0 NNE 6 7 3 4 1014.3 - 0.0
31/03:00am 22.6 25.9 20.7 89 1.2 NNE 4 6 2 3 1014.3 1014.3 0.0
31/02:30am 23.0 25.8 20.9 88 1.4 NNE 7 9 4 5 1014.7 - 0.0
31/02:00am 23.3 26.3 20.8 86 1.6 N 6 7 3 4 1014.9 - 0.0
31/01:30am 23.6 26.5 21.1 86 1.6 NE 7 9 4 5 1015.1 - 0.0
31/01:00am 23.8 26.3 20.3 81 2.3 NE 7 9 4 5 1015.2 - 0.0
31/12:30am 24.6 26.9 21.3 82 2.2 N 11 15 6 8 1015.3 - 0.0
31/12:00am 24.4 27.4 21.3 83 2.0 NNE 7 11 4 6 1015.5 1015.5 0.0
 
Date/Time
CST
Tmp

°C
App
Tmp
°C
Dew
Point
°C
Rel
Hum
%
Delta-T

°C
Wind Press
QNH
hPa
Press
MSL
hPa
Rain
since
9 am
mm
Dir
 
Spd
km/h
Gust
km/h
Spd
kts
Gust
kts
30/11:30pm 24.2 27.3 21.5 85 1.8 NNE 7 9 4 5 1015.5 - 0.0
30/11:00pm 24.1 27.8 22.2 89 1.3 NNE 6 7 3 4 1015.4 - 0.0
30/10:30pm 24.9 30.0 22.6 87 1.5 CALM 0 0 0 0 1015.1 - 0.0
30/10:00pm 25.5 30.0 23.0 86 1.7 N 4 7 2 4 1014.9 - 0.0
30/09:30pm 25.8 29.8 23.1 85 1.8 NNW 7 9 4 5 1014.4 - 0.0
30/09:00pm 26.2 29.7 23.5 85 1.8 N 11 17 6 9 1014.0 1014.0 0.0
30/08:30pm 26.3 29.5 23.0 82 2.2 N 11 19 6 10 1013.5 - 0.0
30/08:00pm 26.4 29.0 22.7 80 2.5 N 13 20 7 11 1013.2 - 0.0
30/07:30pm 26.6 28.9 22.7 79 2.6 N 15 28 8 15 1012.7 - 0.0
30/07:00pm 26.9 28.4 21.2 71 3.8 N 15 22 8 12 1012.5 - 0.0
30/06:30pm 28.1 29.9 19.6 60 5.5 N 9 15 5 8 1012.0 - 0.0
30/06:00pm 28.8 30.2 20.3 60 5.6 NNW 13 20 7 11 1011.8 1011.8 0.0
30/05:30pm 29.4 31.0 21.4 62 5.4 NNW 15 22 8 12 1011.7 - 0.0
30/05:00pm 31.3 33.1 21.2 55 6.8 NNW 13 20 7 11 1011.5 - 0.0
30/04:30pm 31.2 32.4 19.9 51 7.4 NNW 13 20 7 11 1011.3 - 0.0
30/04:00pm 32.3 32.9 18.5 44 8.9 N 13 19 7 10 1011.4 - 0.0
30/03:30pm 33.2 33.8 18.5 41 9.6 N 13 20 7 11 1011.6 - 0.0
30/03:00pm 31.8 32.2 19.1 47 8.3 N 15 24 8 13 1012.0 1012.0 0.0
30/02:30pm 32.4 32.9 20.0 48 8.2 N 17 26 9 14 1012.4 - 0.0
30/02:00pm 32.0 32.3 19.6 47 8.2 NNE 17 28 9 15 1012.9 - 0.0
30/01:30pm 32.5 31.5 17.5 40 9.6 NNE 19 30 10 16 1013.4 - 0.0
30/01:00pm 31.8 32.4 19.4 47 8.1 NE 15 24 8 13 1013.7 - 0.0
30/12:30pm 32.0 32.8 19.9 48 8.0 ENE 15 20 8 11 1014.3 - 0.0
30/12:00pm 31.3 31.6 19.6 49 7.7 ENE 17 26 9 14 1014.9 1014.9 0.0
30/11:30am 30.6 32.4 21.1 57 6.4 ENE 13 24 7 13 1015.5 - 0.0
30/11:00am 29.4 30.8 21.1 61 5.5 NE 15 20 8 11 1016.3 - 0.0
30/10:30am 28.8 30.1 21.6 65 4.8 ENE 17 24 9 13 1016.6 - 0.0
30/10:00am 27.8 28.6 21.3 67 4.3 NE 19 26 10 14 1016.7 - 0.0
30/09:30am 27.7 28.8 22.0 71 3.8 ENE 19 28 10 15 1016.6 - 0.0
30/09:00am 27.6 28.7 21.9 71 3.8 E 19 24 10 13 1016.4 1016.4 0.0
30/08:30am 27.0 28.7 21.7 73 3.5 NNE 15 20 8 11 1016.1 - 0.0
30/08:00am 24.5 27.2 21.4 83 2.0 E 9 11 5 6 1015.8 - 0.0
30/07:30am 22.6 25.9 21.4 93 0.8 ESE 6 7 3 4 1015.5 - 0.0
30/07:00am 21.5 24.4 20.7 95 0.5 SE 6 7 3 4 1015.1 - 0.0
30/06:30am 21.6 24.4 20.8 95 0.5 ESE 7 9 4 5 1015.0 - 0.0
30/06:00am 21.0 24.2 20.5 97 0.3 SE 4 7 2 4 1014.8 1014.8 0.0
30/05:30am 21.0 24.8 20.2 95 0.5 CALM 0 0 0 0 1014.4 - 0.0
30/05:00am 21.2 24.3 20.2 94 0.6 S 4 6 2 3 1014.2 - 0.0
30/04:30am 21.5 25.5 20.5 94 0.6 CALM 0 0 0 0 1014.2 - 0.0
30/04:00am 21.8 24.5 20.6 93 0.8 S 7 7 4 4 1014.2 - 0.0
30/03:30am 22.1 25.2 21.1 94 0.7 S 6 7 3 4 1014.3 - 0.0
30/03:00am 22.0 25.0 20.8 93 0.8 SSE 6 7 3 4 1014.5 1014.5 0.0
30/02:30am 22.0 25.2 20.5 91 1.0 S 4 7 2 4 1014.7 - 0.0
30/02:00am 22.3 25.3 20.8 91 1.0 S 6 7 3 4 1014.7 - 0.0
30/01:30am 22.4 25.2 20.5 89 1.2 S 6 7 3 4 1014.8 - 0.0
30/01:00am 22.8 25.5 20.3 86 1.6 S 6 7 3 4 1015.1 - 0.0
30/12:30am 23.3 26.5 20.4 84 1.9 S 4 7 2 4 1015.2 - 0.0
30/12:00am 24.0 27.7 19.9 78 2.6 CALM 0 0 0 0 1015.2 1015.2 0.0
 
Date/Time
CST
Tmp

°C
App
Tmp
°C
Dew
Point
°C
Rel
Hum
%
Delta-T

°C
Wind Press
QNH
hPa
Press
MSL
hPa
Rain
since
9 am
mm
Dir
 
Spd
km/h
Gust
km/h
Spd
kts
Gust
kts
29/11:30pm 24.9 27.8 20.6 77 2.8 NNE 6 9 3 5 1015.0 - 0.0
29/11:00pm 25.6 28.1 21.1 76 3.0 N 9 13 5 7 1014.9 - 0.0
29/10:30pm 25.8 28.1 20.6 73 3.4 N 9 17 5 9 1014.9 - 0.0
29/10:00pm 26.2 27.9 20.1 69 4.0 NNE 11 20 6 11 1014.7 - 0.0
29/09:30pm 26.5 27.8 20.1 68 4.2 NNE 13 20 7 11 1014.4 - 0.0
29/09:00pm 26.7 27.5 19.8 66 4.5 NNE 15 24 8 13 1014.2 1014.2 0.0
29/08:30pm 26.9 27.4 20.0 66 4.5 N 17 28 9 15 1013.9 - 0.0
29/08:00pm 27.0 27.8 19.9 65 4.6 N 15 26 8 14 1013.6 - 0.0
29/07:30pm 27.1 27.5 19.9 64 4.7 N 17 30 9 16 1013.2 - 0.0
29/07:00pm 27.2 28.1 20.0 64 4.7 N 15 26 8 14 1013.0 - 0.0
29/06:30pm 27.4 27.9 20.0 64 4.8 N 17 28 9 15 1012.7 - 0.0
29/06:00pm 28.2 28.8 20.2 62 5.2 N 17 28 9 15 1012.6 1012.6 0.0
29/05:30pm 28.6 29.4 19.8 59 5.7 NNW 15 22 8 12 1012.5 - 0.0
29/05:00pm 29.5 30.6 20.4 58 6.0 NNW 15 24 8 13 1012.3 - 0.0
29/04:30pm 30.2 31.2 20.2 55 6.6 NNW 15 20 8 11 1012.1 - 0.0
29/04:00pm 29.7 30.1 19.1 53 6.9 NNW 15 22 8 12 1012.2 - 0.0
29/03:30pm 30.7 31.2 20.0 52 7.1 NNW 17 26 9 14 1012.4 - 0.0
29/03:00pm 31.0 31.4 19.0 48 7.8 N 15 26 8 14 1012.8 1012.8 0.0
29/02:30pm 32.3 33.0 18.8 44 8.8 N 13 22 7 12 1013.2 - 0.0
29/02:00pm 30.9 30.4 18.6 48 8.0 NNE 19 28 10 15 1013.8 - 0.0
29/01:30pm 31.0 32.0 20.3 53 7.1 NNE 15 26 8 14 1014.4 - 0.0
29/01:00pm 30.5 31.5 21.0 57 6.3 NNE 17 28 9 15 1014.8 - 0.0
29/12:30pm 30.7 32.2 21.2 57 6.4 NNE 15 26 8 14 1015.2 - 0.0
29/12:00pm 31.2 32.0 19.9 51 7.4 NNE 15 22 8 12 1015.5 1015.5 0.0
29/11:30am 30.5 30.6 19.2 51 7.4 NNE 17 22 9 12 1016.0 - 0.0
29/11:00am 30.7 31.5 19.1 50 7.5 ENE 13 20 7 11 1016.3 - 0.0
29/10:30am 30.5 31.6 18.9 50 7.5 ESE 11 19 6 10 1016.7 - 0.0
29/10:00am 29.4 31.9 20.3 58 6.0 E 7 15 4 8 1016.9 - 0.0
29/09:30am 28.8 31.6 20.8 62 5.3 NE 7 15 4 8 1017.1 - 0.0
29/09:00am 27.0 30.0 20.8 69 4.1 SE 6 9 3 5 1016.9 1016.9 0.0
29/08:30am 25.8 28.6 20.8 74 3.3 E 7 9 4 5 1016.4 - 0.0
29/08:00am 23.3 26.7 21.6 90 1.1 S 6 7 3 4 1016.1 - 0.0
29/07:30am 21.5 24.6 21.5 100 0.0 S 7 11 4 6 1015.9 - 0.0
29/07:00am 20.2 22.5 19.9 98 0.2 S 7 9 4 5 1015.5 - 0.0
29/06:30am 20.4 22.8 20.1 98 0.2 S 7 9 4 5 1014.9 - 0.0
29/06:00am 20.4 22.9 19.9 97 0.3 S 6 7 3 4 1014.6 1014.6 0.0
29/05:30am 20.7 24.6 20.4 98 0.2 CALM 0 0 0 0 1014.3 - 0.0
29/05:00am 20.9 23.8 20.6 98 0.2 S 6 7 3 4 1014.2 - 0.0
29/04:30am 20.9 23.5 20.4 97 0.3 S 7 7 4 4 1014.2 - 0.0
29/04:00am 21.0 23.5 20.2 95 0.5 S 7 7 4 4 1014.2 - 0.0
29/03:30am 21.3 23.8 20.3 94 0.6 S 7 7 4 4 1014.3 - 0.0
29/03:00am 21.6 25.3 19.9 90 1.1 CALM 0 2 0 1 1014.6 1014.6 0.0
29/02:30am 22.3 24.8 20.2 88 1.4 S 7 9 4 5 1014.7 - 0.0
29/02:00am 22.7 24.9 19.3 81 2.2 S 6 7 3 4 1014.9 - 0.0
29/01:30am 24.4 26.7 19.9 76 2.9 N 7 9 4 5 1015.1 - 0.0
29/01:00am 24.2 26.5 19.9 77 2.8 NE 7 11 4 6 1015.3 - 0.0
29/12:30am 24.3 26.8 19.8 76 2.9 NNE 6 7 3 4 1015.3 - 0.0
29/12:00am 25.0 27.7 20.3 75 3.1 NE 6 9 3 5 1015.4 1015.4 0.0
 
Date/Time
CST
Tmp

°C
App
Tmp
°C
Dew
Point
°C
Rel
Hum
%
Delta-T

°C
Wind Press
QNH
hPa
Press
MSL
hPa
Rain
since
9 am
mm
Dir
 
Spd
km/h
Gust
km/h
Spd
kts
Gust
kts
28/11:30pm 25.5 28.1 20.5 74 3.3 NE 7 11 4 6 1015.3 - 0.0
28/11:00pm 25.9 27.2 20.9 74 3.3 N 15 20 8 11 1014.8 - 0.0
28/10:30pm 26.1 27.7 20.7 72 3.5 NNE 13 17 7 9 1014.6 - 0.0
28/10:00pm 26.5 27.7 19.9 67 4.3 NNE 13 20 7 11 1014.3 - 0.0
28/09:30pm 27.0 27.7 19.6 64 4.8 NNE 15 22 8 12 1013.9 - 0.0
28/09:00pm 27.0 28.3 20.1 66 4.5 N 13 20 7 11 1013.7 1013.7 0.0
28/08:30pm 27.1 28.8 20.2 66 4.5 N 11 19 6 10 1013.5 - 0.0
28/08:00pm 27.1 28.6 19.7 64 4.8 N 11 19 6 10 1013.2 - 0.0
28/07:30pm 27.0 28.3 19.4 63 4.9 N 11 19 6 10 1012.9 - 0.0
28/07:00pm 27.2 28.4 19.0 61 5.3 N 11 17 6 9 1012.5 - 0.0
28/06:30pm 27.9 29.0 18.9 58 5.8 N 11 17 6 9 1012.1 - 0.0
28/06:00pm 29.0 30.0 18.7 53 6.6 NNW 11 19 6 10 1011.7 1011.7 0.0
28/05:30pm 29.4 30.0 18.5 52 7.0 NNW 13 19 7 10 1011.5 - 0.0
28/05:00pm 30.6 30.8 19.3 51 7.4 NNW 17 24 9 13 1011.4 - 0.0
28/04:30pm 30.8 30.8 18.2 47 8.1 NNW 15 22 8 12 1011.4 - 0.0
28/04:00pm 30.1 30.0 18.8 50 7.3 NNW 17 22 9 12 1011.5 - 0.0
28/03:30pm 31.5 32.0 19.2 48 8.0 N 15 26 8 14 1011.7 - 0.0
28/03:00pm 31.4 30.4 16.6 41 9.3 N 17 28 9 15 1012.1 1012.1 0.0
28/02:30pm 31.3 31.2 17.9 44 8.6 N 15 24 8 13 1012.6 - 0.0
28/02:00pm 31.7 30.5 17.6 43 9.0 NNE 20 32 11 17 1013.0 - 0.0
28/01:30pm 31.8 31.9 19.1 47 8.3 NNE 17 26 9 14 1013.5 - 0.0
28/01:00pm 31.0 30.4 18.4 47 8.1 NNE 19 30 10 16 1014.2 - 0.0
28/12:30pm 30.8 29.9 17.8 45 8.3 NE 19 26 10 14 1014.7 - 0.0
28/12:00pm 30.3 30.1 18.4 49 7.7 NE 17 24 9 13 1015.3 1015.3 0.0

Latest Capital City Observations: Canberra | Sydney | Melbourne | Brisbane | Adelaide | Perth | Hobart | Darwin

Other Formats:

Comma delimited format used in spreadsheet applications
http://www.bom.gov.au/fwo/IDD60901/IDD60901.94127.axf

JavaScript Object Notation format (JSON) in row-major order
http://www.bom.gov.au/fwo/IDD60901/IDD60901.94127.json